Time;durP1;ratioP1;P1;durP2;ratioP2;P2;SDS_P1;SDS_P2;PMS_P1;PMS_P2;Temp;Humidity;BMP_temperature;BMP_pressure;BME280_temperature;BME280_humidity;BME280_pressure;Samples;Min_cycle;Max_cycle;Signal;HPM_P1;HPM_P2
2023/04/23 00:02:08;;;;;;;52.80;27.73;;;;;;;10.21;97.13;94596.22;5105078;28;20580;-76
2023/04/23 00:04:37;;;;;;;66.83;33.83;;;;;;;10.26;96.95;94587.78;5096666;28;20284;-76
2023/04/23 00:07:04;;;;;;;66.87;32.90;;;;;;;10.17;96.75;94592.47;5095033;28;20212;-76
2023/04/23 00:09:32;;;;;;;45.87;28.87;;;;;;;10.13;96.43;94596.50;5103210;28;20204;-75
2023/04/23 00:12:00;;;;;;;47.43;26.53;;;;;;;10.08;96.92;94587.75;5094967;28;20295;-75
2023/04/23 00:14:28;;;;;;;41.27;24.53;;;;;;;10.11;96.59;94597.69;5102290;28;20291;-75
2023/04/23 00:16:55;;;;;;;34.30;21.33;;;;;;;10.07;96.75;94593.97;5101955;28;20215;-75
2023/04/23 00:19:22;;;;;;;40.07;23.47;;;;;;;9.98;97.71;94590.06;5102064;28;20223;-75
2023/04/23 00:21:49;;;;;;;42.20;25.23;;;;;;;9.98;97.42;94590.84;5101637;28;20211;-75
2023/04/23 00:24:16;;;;;;;45.37;23.90;;;;;;;10.06;97.46;94592.38;5098160;28;20210;-75
2023/04/23 00:26:43;;;;;;;23.97;14.63;;;;;;;9.96;96.59;94592.06;5104133;28;20219;-76
2023/04/23 00:29:11;;;;;;;31.60;15.73;;;;;;;9.91;98.11;94581.53;5103585;28;20261;-76
2023/04/23 00:31:39;;;;;;;27.30;16.50;;;;;;;9.82;98.22;94585.41;5090712;28;20653;-80
2023/04/23 00:34:05;;;;;;;34.23;18.87;;;;;;;9.79;99.34;94581.44;5090207;28;20219;-80
2023/04/23 00:36:32;;;;;;;35.40;18.80;;;;;;;9.82;99.23;94583.59;5099466;28;20196;-80
2023/04/23 00:38:59;;;;;;;26.97;17.13;;;;;;;9.80;99.06;94583.03;5097558;28;20227;-80
2023/04/23 00:41:27;;;;;;;24.23;15.60;;;;;;;9.65;99.33;94585.97;5099772;28;20584;-79
2023/04/23 00:43:56;;;;;;;23.37;15.63;;;;;;;9.73;99.39;94576.31;5100219;28;20204;-80
2023/04/23 00:46:25;;;;;;;20.83;14.07;;;;;;;9.72;98.73;94580.72;5098188;28;20287;-80
2023/04/23 00:48:52;;;;;;;23.13;13.37;;;;;;;9.75;97.97;94577.72;5097720;28;20199;-80
2023/04/23 00:51:19;;;;;;;21.10;12.53;;;;;;;9.65;98.97;94588.56;5088918;28;20208;-80
2023/04/23 00:53:46;;;;;;;23.37;13.40;;;;;;;9.69;98.99;94586.34;5096394;28;20212;-80
2023/04/23 00:56:14;;;;;;;21.27;13.23;;;;;;;9.64;99.27;94584.38;5099139;28;20219;-80
2023/04/23 00:58:41;;;;;;;24.60;14.17;;;;;;;9.55;98.31;94569.31;5095661;28;20223;-80
2023/04/23 01:01:08;;;;;;;29.27;15.50;;;;;;;9.51;99.17;94579.31;5090638;28;20204;-79
2023/04/23 01:03:39;;;;;;;30.33;15.70;;;;;;;9.56;98.34;94579.47;5098599;28;20201;-79
2023/04/23 01:06:06;;;;;;;27.40;15.70;;;;;;;9.51;98.58;94588.88;5091081;28;20728;-80
2023/04/23 01:08:34;;;;;;;30.13;16.03;;;;;;;9.47;99.07;94582.53;5094547;28;20211;-80
2023/04/23 01:11:03;;;;;;;30.73;17.00;;;;;;;9.47;99.22;94578.13;5094021;28;20205;-79
2023/04/23 01:13:30;;;;;;;33.67;16.77;;;;;;;9.53;99.05;94590.25;5100476;28;20207;-80
2023/04/23 01:15:57;;;;;;;28.63;15.63;;;;;;;9.52;98.51;94595.69;5091065;28;20291;-80
2023/04/23 01:18:24;;;;;;;29.60;15.77;;;;;;;9.50;98.40;94588.09;5093918;28;20223;-80
2023/04/23 01:20:53;;;;;;;31.80;15.97;;;;;;;9.45;97.99;94579.38;5093939;28;20207;-80
2023/04/23 01:23:22;;;;;;;27.97;16.07;;;;;;;9.47;98.01;94592.91;5090109;28;20295;-80
2023/04/23 01:25:49;;;;;;;26.37;13.70;;;;;;;9.44;98.63;94588.13;5095674;28;20269;-80
2023/04/23 01:28:16;;;;;;;26.07;15.17;;;;;;;9.45;97.94;94589.75;5096735;28;20203;-75
2023/04/23 01:30:43;;;;;;;27.90;16.43;;;;;;;9.42;97.28;94590.97;5093448;28;20291;-80
2023/04/23 01:33:11;;;;;;;32.07;16.23;;;;;;;9.30;97.88;94587.47;5097644;28;20286;-80
2023/04/23 01:35:37;;;;;;;26.50;15.80;;;;;;;8.75;98.12;94515.69;5092093;28;20254;-80
2023/04/23 01:38:06;;;;;;;32.97;15.07;;;;;;;9.22;98.29;94587.72;5088450;28;20221;-80
2023/04/23 01:40:35;;;;;;;30.90;15.57;;;;;;;9.11;98.77;94584.03;5092293;28;20262;-81
2023/04/23 01:43:02;;;;;;;27.30;14.70;;;;;;;9.15;98.52;94581.00;5090606;28;20203;-81
2023/04/23 01:45:30;;;;;;;27.20;15.00;;;;;;;9.16;99.11;94595.53;5089029;28;20723;-80
2023/04/23 01:47:57;;;;;;;26.47;14.20;;;;;;;9.06;99.68;94589.03;5089165;28;20280;-80
2023/04/23 01:50:26;;;;;;;23.57;13.53;;;;;;;9.05;98.84;94591.84;5093174;28;20201;-80
2023/04/23 01:52:53;;;;;;;24.47;13.03;;;;;;;9.04;99.79;94596.22;5092343;28;20593;-81
2023/04/23 01:55:20;;;;;;;23.33;13.00;;;;;;;9.06;99.15;94591.63;5089088;28;20211;-81
2023/04/23 01:57:48;;;;;;;25.20;12.90;;;;;;;9.04;99.71;94595.41;5092244;28;20227;-80
2023/04/23 02:00:16;;;;;;;23.60;12.17;;;;;;;9.02;99.96;94594.84;5089205;28;20668;-80
2023/04/23 02:02:44;;;;;;;21.43;12.47;;;;;;;9.00;99.64;94594.28;5098252;28;20721;-75
2023/04/23 02:05:12;;;;;;;22.40;12.10;;;;;;;9.01;99.53;94594.03;5099401;28;20244;-75
2023/04/23 02:07:40;;;;;;;19.57;11.13;;;;;;;8.97;100.00;94602.47;5102992;28;20212;-75
2023/04/23 02:10:08;;;;;;;20.20;11.00;;;;;;;8.98;99.61;94591.88;5098199;28;20199;-75
2023/04/23 02:12:35;;;;;;;15.77;11.33;;;;;;;9.01;100.00;94596.63;5100459;28;20199;-75
2023/04/23 02:15:04;;;;;;;22.00;10.60;;;;;;;9.03;99.04;94593.84;5102508;28;20196;-75
2023/04/23 02:17:30;;;;;;;21.30;11.47;;;;;;;9.01;99.99;94593.25;5102934;28;20227;-75
2023/04/23 02:19:57;;;;;;;17.63;11.33;;;;;;;8.92;100.00;94590.13;5101223;28;20721;-75
2023/04/23 02:22:25;;;;;;;18.37;11.20;;;;;;;8.90;99.81;94601.69;5104039;28;20195;-75
2023/04/23 02:24:52;;;;;;;22.40;12.20;;;;;;;8.86;99.66;94598.72;5100614;28;20654;-76
2023/04/23 02:27:19;;;;;;;23.30;12.47;;;;;;;8.76;100.00;94602.78;5103342;28;20201;-76
2023/04/23 02:29:46;;;;;;;18.43;12.30;;;;;;;8.60;100.00;94596.28;5100583;28;20203;-76
2023/04/23 02:32:15;;;;;;;20.30;11.40;;;;;;;8.67;100.00;94602.22;5103126;28;20207;-76
2023/04/23 02:34:42;;;;;;;20.83;12.13;;;;;;;8.71;100.00;94600.81;5102060;28;20657;-78
2023/04/23 02:37:08;;;;;;;17.87;11.20;;;;;;;8.69;100.00;94604.59;5090858;28;20200;-79
2023/04/23 02:39:37;;;;;;;19.00;11.27;;;;;;;8.59;100.00;94596.50;5089514;28;20227;-79
2023/04/23 02:42:04;;;;;;;19.23;12.40;;;;;;;8.60;100.00;94600.69;5096768;28;20204;-75
2023/04/23 02:44:31;;;;;;;28.83;14.27;;;;;;;8.66;100.00;94602.44;5100418;28;20208;-75
2023/04/23 02:46:58;;;;;;;36.17;16.90;;;;;;;8.60;100.00;94598.09;5099670;28;20216;-79
2023/04/23 02:49:26;;;;;;;37.07;17.00;;;;;;;8.59;100.00;94604.25;5091374;28;20246;-79
2023/04/23 02:51:53;;;;;;;32.00;15.60;;;;;;;8.53;100.00;94606.69;5098570;28;20199;-76
2023/04/23 02:54:20;;;;;;;27.43;16.17;;;;;;;8.57;100.00;94604.47;5099268;28;20673;-75
2023/04/23 02:56:47;;;;;;;35.80;17.03;;;;;;;8.52;100.00;94604.28;5105169;28;20200;-75
2023/04/23 02:59:14;;;;;;;30.53;16.80;;;;;;;8.48;100.00;94609.06;5102495;28;20899;-77
2023/04/23 03:01:41;;;;;;;40.90;19.07;;;;;;;8.44;100.00;94604.53;5099385;28;20205;-75
2023/04/23 03:04:08;;;;;;;42.80;20.40;;;;;;;8.32;100.00;94594.00;5102735;28;20273;-76
2023/04/23 03:06:36;;;;;;;42.93;20.63;;;;;;;8.36;100.00;94604.75;5106484;28;20204;-76
2023/04/23 03:09:04;;;;;;;41.80;20.93;;;;;;;8.34;100.00;94604.94;5095595;28;20655;-79
2023/04/23 03:11:31;;;;;;;47.93;22.00;;;;;;;8.40;100.00;94611.91;5095026;28;20243;-78
2023/04/23 03:13:58;;;;;;;41.83;19.43;;;;;;;8.38;100.00;94616.50;5097248;28;20205;-79
2023/04/23 03:16:25;;;;;;;33.53;17.20;;;;;;;8.29;100.00;94614.34;5093100;28;20207;-79
2023/04/23 03:18:52;;;;;;;29.13;16.03;;;;;;;8.31;100.00;94615.72;5095803;28;20303;-79
2023/04/23 03:21:22;;;;;;;28.13;14.67;;;;;;;8.27;100.00;94605.94;5099634;28;20204;-79
2023/04/23 03:23:50;;;;;;;30.73;16.23;;;;;;;8.26;100.00;94610.34;5089833;28;20705;-79
2023/04/23 03:26:17;;;;;;;28.47;15.80;;;;;;;8.28;100.00;94615.34;5093575;28;20197;-79
2023/04/23 03:28:44;;;;;;;32.90;16.80;;;;;;;8.19;100.00;94616.53;5094094;28;20193;-79
2023/04/23 03:31:13;;;;;;;33.37;17.23;;;;;;;8.11;100.00;94599.41;5095281;28;20205;-80
2023/04/23 03:33:40;;;;;;;30.03;15.87;;;;;;;8.20;100.00;94612.94;5094483;28;20223;-79
2023/04/23 03:36:07;;;;;;;32.03;15.93;;;;;;;8.18;100.00;94612.34;5097628;28;20197;-79
2023/04/23 03:38:34;;;;;;;27.40;15.97;;;;;;;8.25;100.00;94618.31;5094699;28;20235;-78
2023/04/23 03:41:02;;;;;;;20.60;13.20;;;;;;;8.28;100.00;94621.28;5096679;28;20200;-77
2023/04/23 03:43:29;;;;;;;29.97;15.63;;;;;;;8.35;100.00;94616.09;5100193;28;20212;-76
2023/04/23 03:45:56;;;;;;;30.90;16.07;;;;;;;8.35;100.00;94619.50;5096861;28;20195;-80
2023/04/23 03:48:22;;;;;;;33.70;16.63;;;;;;;8.40;100.00;94619.66;5093140;28;20555;-79
2023/04/23 03:50:49;;;;;;;34.93;16.50;;;;;;;8.38;100.00;94624.25;5105451;28;20262;-79
2023/04/23 03:53:17;;;;;;;31.83;16.13;;;;;;;8.37;100.00;94625.25;5096924;28;20262;-79
2023/04/23 03:55:44;;;;;;;33.10;15.60;;;;;;;8.33;100.00;94626.69;5092398;28;20274;-79
2023/04/23 03:58:12;;;;;;;33.07;16.03;;;;;;;8.30;100.00;94623.69;5092466;28;20204;-79
2023/04/23 04:00:39;;;;;;;30.23;15.53;;;;;;;8.33;100.00;94621.50;5092746;28;20208;-79
2023/04/23 04:03:07;;;;;;;28.43;16.30;;;;;;;8.40;100.00;94631.81;5092287;28;20740;-79
2023/04/23 04:05:34;;;;;;;30.93;15.63;;;;;;;8.40;100.00;94630.03;5098115;28;20228;-79
2023/04/23 04:08:01;;;;;;;28.40;15.87;;;;;;;8.39;100.00;94638.00;5093132;28;20197;-79
2023/04/23 04:10:28;;;;;;;23.27;14.43;;;;;;;8.43;100.00;94634.00;5092437;28;20548;-78
2023/04/23 04:12:55;;;;;;;27.40;14.90;;;;;;;8.49;100.00;94635.78;5097003;28;20204;-79
2023/04/23 04:15:23;;;;;;;32.57;14.07;;;;;;;8.52;100.00;94638.75;5089669;28;20204;-79
2023/04/23 04:17:50;;;;;;;22.00;13.63;;;;;;;8.51;100.00;94631.97;5093557;28;20588;-78
2023/04/23 04:20:17;;;;;;;27.43;14.37;;;;;;;8.50;100.00;94635.56;5100217;28;20207;-79
2023/04/23 04:22:45;;;;;;;21.70;14.27;;;;;;;8.55;100.00;94637.53;5103934;28;20208;-80
2023/04/23 04:25:12;;;;;;;27.23;14.17;;;;;;;8.53;100.00;94642.13;5096725;28;21456;-79
2023/04/23 04:27:40;;;;;;;31.73;14.33;;;;;;;8.53;100.00;94647.31;5094462;28;20205;-79
2023/04/23 04:30:08;;;;;;;23.47;14.53;;;;;;;8.54;100.00;94648.91;5096860;28;20197;-79
2023/04/23 04:32:37;;;;;;;25.73;13.40;;;;;;;8.53;100.00;94642.94;5095585;28;20207;-80
2023/04/23 04:35:05;;;;;;;32.80;16.17;;;;;;;8.55;100.00;94643.53;5094841;28;20724;-80
2023/04/23 04:37:32;;;;;;;33.50;16.93;;;;;;;8.65;100.00;94647.47;5093691;28;20219;-79
2023/04/23 04:40:00;;;;;;;34.40;17.33;;;;;;;8.63;100.00;94654.66;5092367;28;20676;-78
2023/04/23 04:42:27;;;;;;;34.97;19.73;;;;;;;8.67;100.00;94655.81;5094648;28;20212;-80
2023/04/23 04:44:53;;;;;;;32.47;17.53;;;;;;;8.74;100.00;94652.22;5091284;28;20204;-78
2023/04/23 04:47:20;;;;;;;35.00;17.33;;;;;;;8.79;100.00;94652.38;5094547;28;20233;-80
2023/04/23 04:49:48;;;;;;;36.00;17.90;;;;;;;8.80;100.00;94660.97;5091580;28;20200;-78
2023/04/23 04:52:15;;;;;;;29.90;15.90;;;;;;;8.82;100.00;94657.16;5096356;28;20220;-78
2023/04/23 04:54:42;;;;;;;23.43;12.47;;;;;;;8.91;100.00;94655.13;5091125;28;20607;-78
2023/04/23 04:57:09;;;;;;;20.27;12.97;;;;;;;8.93;100.00;94650.53;5091876;28;20196;-78
2023/04/23 04:59:52;;;;;;;18.23;12.20;;;;;;;9.01;100.00;94666.63;5090465;28;20252;-78
2023/04/23 05:02:22;;;;;;;23.17;12.37;;;;;;;9.06;100.00;94666.00;5087790;28;20208;-77
2023/04/23 05:04:51;;;;;;;21.60;12.00;;;;;;;9.12;100.00;94665.97;5087464;28;20232;-79
2023/04/23 05:07:18;;;;;;;21.60;12.17;;;;;;;9.17;100.00;94669.72;5090449;28;20193;-79
2023/04/23 05:09:47;;;;;;;20.43;11.17;;;;;;;9.19;100.00;94657.34;5094310;28;20208;-79
2023/04/23 05:12:14;;;;;;;15.20;10.57;;;;;;;9.28;100.00;94663.88;5091326;28;20204;-80
2023/04/23 05:14:40;;;;;;;23.53;11.10;;;;;;;9.29;100.00;94658.50;5090482;28;20204;-78
2023/04/23 05:17:07;;;;;;;16.40;10.87;;;;;;;9.30;99.40;94669.63;5094785;28;20204;-79
2023/04/23 05:19:35;;;;;;;15.23;10.53;;;;;;;9.33;98.83;94669.22;5090313;28;20311;-79
2023/04/23 05:22:03;;;;;;;15.83;10.90;;;;;;;9.34;98.97;94671.63;5092953;28;20204;-80
2023/04/23 05:24:30;;;;;;;18.73;11.47;;;;;;;9.39;99.12;94676.16;5090390;28;20193;-80
2023/04/23 05:26:58;;;;;;;20.47;11.47;;;;;;;9.39;98.89;94668.38;5090503;28;20196;-75
2023/04/23 05:29:28;;;;;;;21.00;11.90;;;;;;;9.45;98.45;94670.16;5101061;28;20184;-75
2023/04/23 05:31:55;;;;;;;21.93;13.07;;;;;;;9.53;97.61;94673.28;5098226;28;20215;-75
2023/04/23 05:34:21;;;;;;;20.23;13.43;;;;;;;9.50;97.93;94663.31;5096228;28;20250;-75
2023/04/23 05:36:52;;;;;;;20.33;13.23;;;;;;;9.58;97.32;94681.22;5101221;28;20202;-76
2023/04/23 05:39:20;;;;;;;19.57;12.07;;;;;;;9.58;97.28;94672.66;5098310;28;20219;-75
2023/04/23 05:41:47;;;;;;;20.83;12.20;;;;;;;9.61;96.82;94682.59;5099053;28;20207;-75
2023/04/23 05:44:14;;;;;;;19.03;11.73;;;;;;;9.62;98.02;94682.41;5091845;28;20231;-79
2023/04/23 05:46:41;;;;;;;21.67;11.30;;;;;;;9.63;98.09;94673.63;5096447;28;20727;-79
2023/04/23 05:49:07;;;;;;;13.70;10.30;;;;;;;9.72;96.89;94678.53;5095919;28;20264;-80
2023/04/23 05:51:34;;;;;;;21.77;11.23;;;;;;;9.74;97.20;94679.91;5094807;28;20208;-79
2023/04/23 05:54:01;;;;;;;14.70;10.13;;;;;;;9.79;97.47;94687.03;5088963;28;20200;-80
2023/04/23 05:56:29;;;;;;;15.53;10.30;;;;;;;9.76;97.39;94677.88;5089111;28;20220;-79
2023/04/23 05:58:56;;;;;;;18.07;10.27;;;;;;;9.84;97.08;94688.00;5094214;28;20203;-80
2023/04/23 06:01:23;;;;;;;18.17;10.10;;;;;;;9.80;96.11;94678.25;5089642;28;20204;-80
2023/04/23 06:03:51;;;;;;;15.40;10.37;;;;;;;9.76;96.17;94675.28;5093132;28;20196;-80
2023/04/23 06:06:20;;;;;;;15.80;11.10;;;;;;;9.82;96.76;94684.03;5089511;28;20659;-80
2023/04/23 06:08:47;;;;;;;17.60;10.47;;;;;;;9.75;97.80;94671.13;5089869;28;20679;-80
2023/04/23 06:11:14;;;;;;;17.27;10.80;;;;;;;9.91;97.25;94686.16;5092497;28;20670;-79
2023/04/23 06:13:42;;;;;;;17.43;10.97;;;;;;;9.96;97.14;94685.50;5091994;28;20573;-79
2023/04/23 06:16:09;;;;;;;17.00;11.20;;;;;;;10.03;95.96;94684.47;5092297;28;20200;-81
2023/04/23 06:18:36;;;;;;;22.20;11.70;;;;;;;10.12;96.10;94677.19;5093217;28;20196;-78
2023/04/23 06:21:04;;;;;;;18.33;11.30;;;;;;;10.07;95.43;94671.84;5091863;28;20220;-78
2023/04/23 06:23:31;;;;;;;20.93;11.80;;;;;;;10.17;94.95;94685.16;5093354;28;20207;-79
2023/04/23 06:25:59;;;;;;;18.53;11.73;;;;;;;10.22;95.23;94683.50;5097443;28;20192;-78
2023/04/23 06:28:26;;;;;;;16.73;11.07;;;;;;;10.27;95.90;94684.66;5097876;28;20692;-80
2023/04/23 06:30:54;;;;;;;15.80;11.43;;;;;;;10.30;95.40;94686.84;5093315;28;20196;-82
2023/04/23 06:33:21;;;;;;;16.97;11.17;;;;;;;10.36;94.76;94681.56;5093984;28;20204;-79
2023/04/23 06:35:48;;;;;;;18.63;11.67;;;;;;;10.39;94.64;94685.56;5095773;28;20205;-80
2023/04/23 06:38:17;;;;;;;16.53;11.53;;;;;;;10.41;95.68;94686.94;5093090;28;20212;-79
2023/04/23 06:40:44;;;;;;;15.67;11.70;;;;;;;10.51;95.38;94689.81;5092689;28;20347;-80
2023/04/23 06:43:11;;;;;;;19.47;11.93;;;;;;;10.57;95.10;94682.94;5092839;28;20201;-79
2023/04/23 06:45:38;;;;;;;15.77;11.43;;;;;;;10.71;93.54;94681.78;5095054;28;20654;-79
2023/04/23 06:48:07;;;;;;;17.53;11.07;;;;;;;10.71;94.20;94679.19;5105057;28;20277;-78
2023/04/23 06:50:34;;;;;;;21.43;11.63;;;;;;;10.65;93.83;94675.66;5096602;28;20199;-79
2023/04/23 06:53:00;;;;;;;18.57;10.37;;;;;;;10.79;93.60;94681.50;5098427;28;20215;-78
2023/04/23 06:55:28;;;;;;;16.87;10.07;;;;;;;10.75;94.46;94660.34;5100788;28;20200;-78
2023/04/23 06:57:54;;;;;;;15.10;10.30;;;;;;;10.91;93.78;94673.78;5100902;28;20196;-78
2023/04/23 07:00:22;;;;;;;15.50;10.10;;;;;;;10.95;93.97;94673.09;5105223;28;20265;-78
2023/04/23 07:02:49;;;;;;;17.67;10.00;;;;;;;11.00;94.53;94678.44;5099455;28;20195;-78
2023/04/23 07:05:18;;;;;;;15.07;9.10;;;;;;;11.12;94.49;94678.47;5098873;28;20326;-77
2023/04/23 07:07:45;;;;;;;13.97;9.63;;;;;;;11.21;93.31;94677.16;5102807;28;20196;-78
2023/04/23 07:10:12;;;;;;;15.03;10.03;;;;;;;11.26;92.65;94683.28;5104305;28;20197;-79
2023/04/23 07:12:40;;;;;;;14.50;9.87;;;;;;;11.23;92.23;94670.72;5100301;28;20780;-77
2023/04/23 07:15:07;;;;;;;16.80;9.87;;;;;;;11.27;93.14;94681.47;5094247;28;20227;-77
2023/04/23 07:17:34;;;;;;;13.23;9.40;;;;;;;11.37;93.12;94681.72;5095169;28;20297;-77
2023/04/23 07:20:04;;;;;;;17.27;9.30;;;;;;;11.45;92.53;94676.22;5103747;28;20250;-78
2023/04/23 07:22:32;;;;;;;15.40;9.33;;;;;;;11.56;92.65;94672.06;5097339;28;20258;-78
2023/04/23 07:24:59;;;;;;;13.67;8.93;;;;;;;11.60;92.17;94665.41;5098813;28;20195;-79
2023/04/23 07:27:26;;;;;;;17.17;9.43;;;;;;;11.76;91.85;94677.78;5101128;28;20201;-79
2023/04/23 07:29:53;;;;;;;14.77;9.83;;;;;;;11.81;90.99;94670.88;5103820;28;20196;-78
2023/04/23 07:32:22;;;;;;;16.10;9.90;;;;;;;11.86;91.80;94663.19;5092279;28;20197;-79
2023/04/23 07:34:49;;;;;;;15.17;9.57;;;;;;;11.91;91.51;94667.75;5093230;28;20213;-81
2023/04/23 07:37:15;;;;;;;15.43;9.87;;;;;;;12.01;91.30;94661.94;5094669;28;20323;-80
2023/04/23 07:39:44;;;;;;;14.10;9.97;;;;;;;12.10;91.08;94664.00;5095516;28;20231;-80
2023/04/23 07:42:10;;;;;;;15.33;10.40;;;;;;;12.14;90.70;94643.50;5099657;28;20188;-78
2023/04/23 07:44:37;;;;;;;16.20;9.97;;;;;;;12.29;90.88;94670.69;5099073;28;20552;-80
2023/04/23 07:47:04;;;;;;;16.23;9.70;;;;;;;12.35;91.36;94674.19;5095115;28;20293;-80
2023/04/23 07:49:31;;;;;;;14.07;9.37;;;;;;;12.47;89.83;94670.53;5100097;28;20207;-79
2023/04/23 07:51:58;;;;;;;15.10;9.47;;;;;;;12.58;89.06;94668.16;5091519;28;20197;-79
2023/04/23 07:54:26;;;;;;;15.80;9.27;;;;;;;12.67;90.11;94672.00;5094869;28;20720;-79
2023/04/23 07:56:55;;;;;;;14.03;9.37;;;;;;;12.81;88.56;94668.88;5102255;28;20268;-78
2023/04/23 07:59:22;;;;;;;11.83;8.83;;;;;;;12.86;88.58;94676.81;5099823;28;20200;-79
2023/04/23 08:01:49;;;;;;;18.33;9.67;;;;;;;13.01;88.56;94668.50;5096213;28;20229;-79
2023/04/23 08:04:16;;;;;;;12.40;8.73;;;;;;;13.13;87.32;94668.50;5094697;28;20260;-79
2023/04/23 08:06:43;;;;;;;15.03;9.30;;;;;;;13.28;86.77;94674.78;5097078;28;21611;-79
2023/04/23 08:09:10;;;;;;;16.90;9.47;;;;;;;13.41;85.48;94671.09;5096584;28;20197;-83
2023/04/23 08:11:37;;;;;;;11.40;8.03;;;;;;;13.51;85.77;94666.03;5090782;28;20616;-82
2023/04/23 08:14:05;;;;;;;13.13;9.03;;;;;;;13.65;84.59;94667.31;5093914;28;20215;-82
2023/04/23 08:16:34;;;;;;;16.40;9.50;;;;;;;13.73;83.47;94668.75;5092307;28;20205;-82
2023/04/23 08:19:01;;;;;;;11.87;9.13;;;;;;;13.78;81.81;94661.00;5091646;28;20204;-81
2023/04/23 08:21:28;;;;;;;12.07;8.53;;;;;;;13.80;82.41;94659.72;5090383;28;20224;-82
2023/04/23 08:23:55;;;;;;;13.67;8.80;;;;;;;13.89;82.66;94667.97;5090941;28;20193;-82
2023/04/23 08:26:22;;;;;;;13.53;8.53;;;;;;;14.01;82.50;94664.25;5091961;28;20205;-82
2023/04/23 08:28:49;;;;;;;12.43;8.63;;;;;;;14.18;79.36;94667.63;5091145;28;20189;-81
2023/04/23 08:31:17;;;;;;;12.17;8.30;;;;;;;14.29;79.01;94652.09;5090779;28;20208;-82
2023/04/23 08:33:44;;;;;;;11.33;8.30;;;;;;;14.45;78.29;94659.94;5097765;28;20388;-81
2023/04/23 08:36:11;;;;;;;12.93;8.53;;;;;;;14.55;77.63;94654.84;5091117;28;20213;-80
2023/04/23 08:38:38;;;;;;;15.30;8.97;;;;;;;14.58;78.77;94648.31;5089765;28;20196;-81
2023/04/23 08:41:06;;;;;;;13.77;8.77;;;;;;;14.71;77.32;94659.25;5092740;28;20229;-80
2023/04/23 08:43:42;;;;;;;14.50;8.47;;;;;;;14.77;77.64;94642.56;5092992;28;20946;-79
2023/04/23 08:46:14;;;;;;;12.03;8.33;;;;;;;14.82;75.49;94643.66;5091950;28;20199;-81
2023/04/23 08:48:46;;;;;;;14.37;8.87;;;;;;;14.90;75.46;94651.06;5089338;28;20204;-80
2023/04/23 08:51:19;;;;;;;11.07;8.57;;;;;;;14.86;76.31;94632.47;5090330;28;20646;-81
2023/04/23 08:53:51;;;;;;;10.27;8.10;;;;;;;15.11;78.51;94637.19;5096099;28;20204;-80
2023/04/23 08:56:19;;;;;;;11.77;8.03;;;;;;;15.23;76.91;94636.03;5090714;28;20192;-78
2023/04/23 08:58:47;;;;;;;11.03;7.97;;;;;;;15.44;74.46;94646.69;5089814;28;20664;-80
2023/04/23 09:01:15;;;;;;;11.07;8.17;;;;;;;15.50;72.00;94645.72;5093378;28;20220;-80
2023/04/23 09:03:43;;;;;;;11.53;8.90;;;;;;;15.58;72.48;94647.91;5093347;28;20430;-78
2023/04/23 09:06:11;;;;;;;11.43;8.60;;;;;;;15.61;72.18;94636.91;5099367;28;20188;-78
2023/04/23 09:08:38;;;;;;;13.37;8.23;;;;;;;15.59;72.04;94642.38;5093205;28;20192;-77
2023/04/23 09:11:06;;;;;;;11.43;8.67;;;;;;;15.71;70.35;94642.22;5102402;28;20932;-77
2023/04/23 09:13:34;;;;;;;15.87;8.70;;;;;;;15.66;72.02;94624.66;5100262;28;20196;-78
2023/04/23 09:16:01;;;;;;;12.53;8.50;;;;;;;15.84;72.17;94633.97;5095645;28;20678;-77
2023/04/23 09:18:28;;;;;;;13.33;8.83;;;;;;;16.03;70.57;94636.97;5096550;28;20196;-80
2023/04/23 09:20:57;;;;;;;13.77;8.43;;;;;;;16.19;68.38;94636.81;5098068;28;20297;-77
2023/04/23 09:23:23;;;;;;;12.10;8.30;;;;;;;16.26;69.68;94631.34;5099194;28;20628;-77
2023/04/23 09:25:51;;;;;;;14.47;8.90;;;;;;;16.40;67.82;94633.28;5100756;28;20196;-78
2023/04/23 09:28:18;;;;;;;12.90;8.73;;;;;;;16.34;67.41;94626.41;5098259;28;20192;-79
2023/04/23 09:30:45;;;;;;;11.07;8.43;;;;;;;16.44;67.60;94623.88;5100857;28;20925;-80
2023/04/23 09:33:13;;;;;;;11.90;7.87;;;;;;;16.67;68.29;94625.31;5094512;28;20231;-80
2023/04/23 09:35:42;;;;;;;10.43;7.23;;;;;;;16.99;67.10;94625.19;5092943;28;20200;-80
2023/04/23 09:38:10;;;;;;;11.07;8.40;;;;;;;17.14;64.55;94622.59;5097156;28;20283;-80
2023/04/23 09:40:37;;;;;;;20.80;8.17;;;;;;;17.31;64.16;94625.00;5091470;28;20221;-80
2023/04/23 09:43:06;;;;;;;10.97;7.80;;;;;;;17.46;63.97;94620.53;5091832;28;20297;-80
2023/04/23 09:45:35;;;;;;;11.00;8.47;;;;;;;17.71;63.19;94621.66;5090032;28;20686;-79
2023/04/23 09:48:15;;;;;;;11.75;7.60;;;;;;;17.94;64.02;94607.97;5096440;28;20307;-77
2023/04/23 09:50:42;;;;;;;12.27;7.67;;;;;;;18.28;60.54;94616.88;5101160;28;20203;-77
2023/04/23 09:53:10;;;;;;;14.73;7.78;;;;;;;18.49;59.86;94612.38;5097828;28;20196;-78
2023/04/23 09:55:39;;;;;;;10.18;7.40;;;;;;;18.58;57.59;94614.22;5096064;28;20200;-77
2023/04/23 09:58:11;;;;;;;9.15;7.15;;;;;;;18.69;55.89;94615.75;5098730;28;20220;-77
2023/04/23 10:00:39;;;;;;;9.60;6.93;;;;;;;18.58;57.25;94605.53;5094995;28;20321;-77
2023/04/23 10:03:08;;;;;;;11.48;7.22;;;;;;;18.50;57.43;94587.63;5097392;28;20196;-78
2023/04/23 10:05:39;;;;;;;9.27;6.93;;;;;;;18.77;55.83;94600.44;5103680;28;20721;-77
2023/04/23 10:08:06;;;;;;;11.70;7.65;;;;;;;18.95;55.06;94603.25;5101314;28;20231;-79
2023/04/23 10:10:35;;;;;;;9.70;7.47;;;;;;;19.06;54.37;94602.16;5104458;28;20200;-78
2023/04/23 10:13:02;;;;;;;11.88;7.15;;;;;;;19.32;54.66;94602.00;5106264;28;20218;-78
2023/04/23 10:15:30;;;;;;;10.80;7.30;;;;;;;19.38;53.88;94595.63;5105274;28;20713;-77
2023/04/23 10:17:58;;;;;;;10.77;6.90;;;;;;;19.44;52.98;94591.94;5101740;28;20203;-78
2023/04/23 10:20:25;;;;;;;11.88;6.68;;;;;;;19.58;51.70;94585.78;5099846;28;20189;-78
2023/04/23 10:22:55;;;;;;;8.93;6.88;;;;;;;19.75;51.51;94580.09;5097907;28;20246;-78
2023/04/23 10:25:24;;;;;;;10.30;6.15;;;;;;;20.07;51.75;94584.81;5103001;28;20202;-77
2023/04/23 10:27:53;;;;;;;10.60;6.93;;;;;;;20.33;49.53;94583.53;5101544;28;20211;-77
2023/04/23 10:30:20;;;;;;;12.02;6.72;;;;;;;20.31;48.10;94575.13;5107842;28;20669;-77
2023/04/23 10:32:48;;;;;;;9.00;7.15;;;;;;;20.20;48.75;94573.63;5097802;28;20196;-79
2023/04/23 10:35:15;;;;;;;7.63;6.50;;;;;;;20.31;49.01;94570.63;5101327;28;20675;-79
2023/04/23 10:37:44;;;;;;;9.05;6.82;;;;;;;20.41;47.19;94566.28;5099734;28;20327;-79
2023/04/23 10:40:13;;;;;;;10.77;6.88;;;;;;;20.48;46.96;94564.13;5098392;28;20201;-79
2023/04/23 10:42:42;;;;;;;11.27;7.25;;;;;;;20.70;46.45;94553.81;5099912;28;20752;-79
2023/04/23 10:45:14;;;;;;;7.68;6.55;;;;;;;20.88;46.19;94556.50;5095181;28;20205;-80
2023/04/23 10:47:43;;;;;;;9.32;6.72;;;;;;;20.97;46.14;94547.91;5095896;28;20290;-80
2023/04/23 10:50:22;;;;;;;8.70;6.47;;;;;;;21.09;42.74;94551.75;5100536;28;20645;-80
2023/04/23 10:52:52;;;;;;;9.02;6.45;;;;;;;21.11;43.25;94546.97;5098384;28;20207;-79
2023/04/23 10:55:21;;;;;;;10.73;6.55;;;;;;;21.14;42.82;94541.09;5099589;28;20620;-80
2023/04/23 10:58:06;;;;;;;13.32;6.60;;;;;;;21.29;42.69;94540.88;5096289;28;20288;-80
2023/04/23 11:00:45;;;;;;;7.25;6.40;;;;;;;21.44;44.39;94535.34;5090665;28;20192;-79
2023/04/23 11:03:32;;;;;;;8.80;6.28;;;;;;;21.66;43.02;94531.31;5101645;28;20212;-80
2023/04/23 11:06:01;;;;;;;13.52;6.57;;;;;;;21.88;41.82;94531.50;5093450;28;20655;-79
2023/04/23 11:08:31;;;;;;;6.57;5.93;;;;;;;22.15;41.31;94528.91;5097830;28;20215;-79
2023/04/23 11:10:59;;;;;;;8.05;5.70;;;;;;;22.30;41.09;94530.50;5098862;28;20647;-78
2023/04/23 11:13:27;;;;;;;7.63;5.90;;;;;;;22.43;38.43;94525.19;5100733;28;20201;-79
2023/04/23 11:16:18;;;;;;;10.40;5.75;;;;;;;22.55;38.88;94530.00;5099918;28;20207;-80
2023/04/23 11:18:58;;;;;;;7.45;5.03;;;;;;;22.56;36.66;94527.06;5097080;28;20891;-79
2023/04/23 11:21:57;;;;;;;11.35;5.50;;;;;;;22.80;38.37;94515.47;5096084;28;20666;-79
2023/04/23 11:24:24;;;;;;;7.55;5.30;;;;;;;23.08;37.66;94522.28;5098962;28;20283;-78
2023/04/23 11:26:53;;;;;;;12.90;5.78;;;;;;;23.37;38.84;94528.00;5104692;28;20189;-77